createdAt,value
2023-01-10T00:00:25.194Z,2.17
2023-01-10T00:03:26.576Z,2.20
2023-01-10T00:06:29.144Z,2.10
2023-01-10T00:09:31.738Z,2.05
2023-01-10T00:12:51.145Z,1.60
2023-01-10T00:15:56.819Z,2.28
2023-01-10T00:18:58.159Z,2.30
2023-01-10T00:22:14.107Z,2.17
2023-01-10T00:25:15.627Z,2.22
2023-01-10T00:28:20.594Z,1.73
2023-01-10T00:31:22.697Z,2.17
2023-01-10T00:34:25.839Z,1.90
2023-01-10T00:37:28.456Z,2.10
2023-01-10T00:40:31.073Z,2.22
2023-01-10T00:43:50.818Z,2.05
2023-01-10T00:46:54.456Z,2.30
2023-01-10T00:49:55.813Z,2.00
2023-01-10T00:52:58.436Z,2.03
2023-01-10T00:56:01.056Z,2.10
2023-01-10T00:59:03.003Z,2.22
2023-01-10T01:02:06.333Z,2.53
2023-01-10T01:05:08.569Z,2.10
2023-01-10T01:08:12.659Z,2.30
2023-01-10T01:11:15.224Z,2.50
2023-01-10T01:14:16.532Z,2.20
2023-01-10T01:17:20.356Z,1.95
2023-01-10T01:20:21.861Z,2.13
2023-01-10T01:23:25.309Z,2.30
2023-01-10T01:26:26.714Z,2.40
2023-01-10T01:29:42.423Z,2.10
2023-01-10T01:32:44.851Z,1.95
2023-01-10T01:35:49.426Z,1.90
2023-01-10T01:38:52.159Z,2.20
2023-01-10T01:41:59.798Z,2.10
2023-01-10T01:45:33.304Z,1.88
2023-01-10T01:48:37.678Z,2.25
2023-01-10T01:51:40.550Z,2.00
2023-01-10T01:54:43.533Z,1.83
2023-01-10T01:57:47.794Z,2.10
2023-01-10T02:00:49.347Z,2.60
2023-01-10T02:03:57.874Z,2.47
2023-01-10T02:06:59.539Z,2.03
2023-01-10T02:13:27.977Z,2.22
2023-01-10T02:16:30.564Z,2.28
2023-01-10T02:19:47.809Z,2.35
2023-01-10T02:23:13.993Z,2.73
2023-01-10T02:26:42.472Z,2.30
2023-01-10T02:30:18.379Z,2.58
2023-01-10T02:33:25.707Z,2.30
2023-01-10T02:36:39.287Z,2.40
2023-01-10T02:39:53.793Z,1.90
2023-01-10T02:43:00.777Z,2.10
2023-01-10T02:46:07.374Z,2.30
2023-01-10T02:49:09.431Z,2.03
2023-01-10T02:52:14.183Z,2.72
2023-01-10T02:55:16.246Z,2.27
2023-01-10T02:58:33.100Z,2.38
2023-01-10T03:01:43.686Z,2.60
2023-01-10T03:04:55.479Z,2.47
2023-01-10T03:08:10.546Z,2.50
2023-01-10T03:11:13.203Z,2.50
2023-01-10T03:14:18.602Z,2.92
2023-01-10T03:17:23.765Z,2.83
2023-01-10T03:20:28.606Z,2.60
2023-01-10T03:23:34.350Z,2.58
2023-01-10T03:26:45.483Z,2.40
2023-01-10T03:29:54.233Z,2.80
2023-01-10T03:32:57.486Z,3.00
2023-01-10T03:36:14.322Z,2.40
2023-01-10T03:39:23.120Z,2.80
2023-01-10T03:42:53.255Z,2.60
2023-01-10T03:45:58.550Z,2.47
2023-01-10T03:49:03.677Z,2.50
2023-01-10T03:52:07.174Z,2.67
2023-01-10T03:55:12.611Z,2.30
2023-01-10T03:58:14.912Z,2.33
2023-01-10T04:01:16.506Z,2.65
2023-01-10T04:04:19.106Z,2.40
2023-01-10T04:07:21.263Z,2.17
2023-01-10T04:10:25.304Z,2.78
2023-01-10T04:13:26.965Z,2.47
2023-01-10T04:16:29.463Z,2.67
2023-01-10T04:22:52.011Z,2.58
2023-01-10T04:25:54.247Z,2.97
2023-01-10T04:28:55.866Z,2.60
2023-01-10T04:31:58.404Z,2.20
2023-01-10T04:35:00.626Z,2.38
2023-01-10T04:38:02.625Z,2.53
2023-01-10T04:41:05.146Z,3.00
2023-01-10T04:44:06.577Z,2.67
2023-01-10T04:47:08.326Z,3.17
2023-01-10T04:50:10.789Z,3.10
2023-01-10T04:53:13.398Z,2.92
2023-01-10T04:56:18.893Z,3.33
2023-01-10T04:59:20.390Z,3.17
2023-01-10T05:02:23.045Z,3.03
2023-01-10T05:05:24.961Z,3.15
2023-01-10T05:08:28.577Z,3.40
2023-01-10T05:11:29.871Z,3.75
2023-01-10T05:14:32.475Z,3.70
2023-01-10T05:17:33.932Z,3.47
2023-01-10T05:20:36.545Z,3.65
2023-01-10T05:23:39.294Z,3.65
2023-01-10T05:26:41.921Z,3.00
2023-01-10T05:29:43.739Z,3.07
2023-01-10T05:32:45.326Z,3.25
2023-01-10T05:35:46.663Z,3.08
2023-01-10T05:38:48.982Z,3.97
2023-01-10T05:41:51.537Z,3.85
2023-01-10T05:44:52.995Z,3.57
2023-01-10T05:47:55.522Z,4.10
2023-01-10T05:50:57.220Z,3.70
2023-01-10T05:53:59.168Z,4.00
2023-01-10T05:57:01.770Z,3.92
2023-01-10T06:00:05.207Z,3.83
2023-01-10T06:03:08.395Z,3.50
2023-01-10T06:06:11.647Z,4.10
2023-01-10T06:09:14.874Z,3.80
2023-01-10T06:12:17.868Z,3.92
2023-01-10T06:15:20.915Z,3.87
2023-01-10T06:18:22.229Z,3.92
2023-01-10T06:21:24.751Z,3.97
2023-01-10T06:24:26.732Z,3.70
2023-01-10T06:27:29.334Z,4.40
2023-01-10T06:30:32.052Z,3.60
2023-01-10T06:36:56.404Z,4.53
2023-01-10T06:39:58.675Z,3.58
2023-01-10T06:43:01.225Z,4.10
2023-01-10T06:46:02.583Z,3.60
2023-01-10T06:49:04.018Z,3.90
2023-01-10T06:52:06.742Z,3.83
2023-01-10T06:55:09.577Z,4.15
2023-01-10T06:58:12.465Z,4.28
2023-01-10T07:01:16.303Z,3.50
2023-01-10T07:04:19.215Z,3.40
2023-01-10T07:07:20.518Z,4.28
2023-01-10T07:10:24.056Z,3.60
2023-01-10T07:13:25.665Z,4.60
2023-01-10T07:16:28.507Z,4.23
2023-01-10T07:19:29.808Z,4.43
2023-01-10T07:22:32.322Z,4.43
2023-01-10T07:25:35.546Z,4.22
2023-01-10T07:28:38.511Z,4.65
2023-01-10T07:31:39.866Z,3.87
2023-01-10T07:34:41.321Z,3.95
2023-01-10T07:37:42.584Z,4.00
2023-01-10T07:40:45.839Z,4.18
2023-01-10T07:43:48.077Z,4.80
2023-01-10T07:46:49.911Z,3.63
2023-01-10T07:49:51.238Z,3.80
2023-01-10T07:52:52.806Z,4.93
2023-01-10T07:56:00.355Z,5.15
2023-01-10T07:59:01.680Z,5.78
2023-01-10T08:02:02.984Z,5.70
2023-01-10T08:05:06.436Z,4.75
2023-01-10T08:08:09.624Z,4.97
2023-01-10T08:11:11.639Z,4.45
2023-01-10T08:14:14.282Z,5.20
2023-01-10T08:17:15.705Z,4.90
2023-01-10T08:20:18.555Z,4.60
2023-01-10T08:23:21.217Z,4.75
2023-01-10T08:26:24.497Z,4.93
2023-01-10T08:29:27.103Z,4.60
2023-01-10T08:32:28.858Z,5.27
2023-01-10T08:35:31.464Z,4.72
2023-01-10T08:38:32.781Z,5.90
2023-01-10T08:41:34.790Z,5.65
2023-01-10T08:44:36.591Z,5.53
2023-01-10T08:47:38.100Z,4.57
2023-01-10T08:50:41.201Z,4.78
2023-01-10T08:53:42.476Z,4.97
2023-01-10T08:56:45.918Z,6.35
2023-01-10T08:59:47.239Z,5.63
2023-01-10T09:02:48.620Z,4.77
2023-01-10T09:05:51.241Z,4.78
2023-01-10T09:08:53.123Z,4.57
2023-01-10T09:11:58.010Z,4.32
2023-01-10T09:14:59.374Z,4.18
2023-01-10T09:18:03.238Z,5.17
2023-01-10T09:21:05.973Z,4.60
2023-01-10T09:24:07.685Z,4.60
2023-01-10T09:27:09.874Z,5.03
2023-01-10T09:30:12.714Z,5.20
2023-01-10T09:33:15.022Z,5.20
2023-01-10T09:36:16.342Z,6.60
2023-01-10T09:39:19.303Z,5.10
2023-01-10T09:42:35.271Z,4.50
2023-01-10T09:45:44.671Z,5.10
2023-01-10T09:48:51.991Z,4.40
2023-01-10T09:51:59.243Z,4.15
2023-01-10T09:55:14.310Z,4.45
2023-01-10T09:58:20.871Z,4.20
2023-01-10T10:01:27.353Z,4.07
2023-01-10T10:04:34.591Z,4.20
2023-01-10T10:07:36.180Z,3.70
2023-01-10T10:14:16.716Z,3.83
2023-01-10T10:17:33.362Z,3.50
2023-01-10T10:20:47.390Z,3.97
2023-01-10T10:24:16.470Z,4.32
2023-01-10T10:27:22.307Z,4.30
2023-01-10T10:30:36.751Z,4.40
2023-01-10T10:33:53.128Z,3.88
2023-01-10T10:36:58.960Z,3.60
2023-01-10T10:40:05.006Z,3.85
2023-01-10T10:43:15.652Z,3.60
2023-01-10T10:49:46.733Z,3.40
2023-01-10T10:52:49.370Z,3.20
2023-01-10T10:55:51.887Z,3.63
2023-01-10T10:58:57.989Z,4.00
2023-01-10T11:02:00.662Z,3.33
2023-01-10T11:08:30.386Z,4.10
2023-01-10T11:11:37.293Z,3.67
2023-01-10T11:14:45.176Z,3.38
2023-01-10T11:18:05.392Z,3.17
2023-01-10T11:21:13.479Z,3.00
2023-01-10T11:24:21.684Z,2.87
2023-01-10T11:27:27.897Z,3.33
2023-01-10T11:30:33.383Z,3.53
2023-01-10T11:33:36.843Z,2.60
2023-01-10T11:36:53.219Z,2.60
2023-01-10T11:40:18.394Z,3.07
2023-01-10T11:43:25.976Z,2.65
2023-01-10T11:46:28.179Z,3.10
2023-01-10T11:49:34.900Z,3.58
2023-01-10T11:52:44.368Z,3.30
2023-01-10T11:55:48.024Z,3.20
2023-01-10T11:58:50.750Z,3.00
2023-01-10T12:02:00.925Z,3.60
2023-01-10T12:05:07.505Z,2.95
2023-01-10T12:08:32.101Z,2.92
2023-01-10T12:11:35.112Z,2.90
2023-01-10T12:14:36.875Z,2.67
2023-01-10T12:21:00.043Z,2.40
2023-01-10T12:24:06.452Z,2.75
2023-01-10T12:27:12.338Z,3.60
2023-01-10T12:30:19.878Z,3.50
2023-01-10T12:33:25.456Z,2.85
2023-01-10T12:36:38.012Z,2.70
2023-01-10T12:39:45.808Z,3.15
2023-01-10T12:43:13.211Z,2.40
2023-01-10T12:46:41.035Z,2.30
2023-01-10T12:49:49.066Z,2.47
2023-01-10T12:52:58.796Z,2.60
2023-01-10T12:56:05.326Z,2.22
2023-01-10T12:59:16.202Z,2.50
2023-01-10T13:02:23.907Z,2.10
2023-01-10T13:05:27.339Z,2.58
2023-01-10T13:08:34.734Z,3.10
2023-01-10T13:11:44.293Z,2.45
2023-01-10T13:14:52.476Z,2.08
2023-01-10T13:17:59.241Z,2.30
2023-01-10T13:21:13.810Z,2.70
2023-01-10T13:24:28.297Z,2.45
2023-01-10T13:27:34.072Z,2.20
2023-01-10T13:30:42.682Z,3.00
2023-01-10T13:33:53.813Z,2.40
2023-01-10T13:36:58.009Z,2.20
2023-01-10T13:40:02.967Z,2.70
2023-01-10T13:43:34.946Z,2.47
2023-01-10T13:46:45.060Z,2.88
2023-01-10T13:49:47.967Z,2.80
2023-01-10T13:52:50.722Z,2.60
2023-01-10T13:55:56.193Z,3.03
2023-01-10T13:59:15.747Z,2.30
2023-01-10T14:05:52.120Z,2.90
2023-01-10T14:08:55.852Z,2.63
2023-01-10T14:11:59.628Z,2.53
2023-01-10T14:15:06.137Z,2.60
2023-01-10T14:18:18.898Z,2.90
2023-01-10T14:21:25.403Z,2.53
2023-01-10T14:24:30.295Z,2.50
2023-01-10T14:27:42.714Z,3.40
2023-01-10T14:30:45.460Z,3.83
2023-01-10T14:33:47.839Z,4.45
2023-01-10T14:36:57.101Z,3.23
2023-01-10T14:39:59.702Z,3.42
2023-01-10T14:43:08.406Z,2.72
2023-01-10T14:46:15.428Z,3.20
2023-01-10T14:49:24.535Z,3.33
2023-01-10T14:52:26.253Z,2.97
2023-01-10T14:55:28.937Z,3.40
2023-01-10T14:58:30.928Z,3.00
2023-01-10T15:04:55.669Z,3.60
2023-01-10T15:08:17.276Z,3.03
2023-01-10T15:11:19.575Z,3.50
2023-01-10T15:14:25.596Z,3.37
2023-01-10T15:17:27.675Z,3.30
2023-01-10T15:20:30.898Z,3.63
2023-01-10T15:23:36.236Z,3.88
2023-01-10T15:26:39.078Z,3.37
2023-01-10T15:29:43.977Z,3.07
2023-01-10T15:36:15.629Z,3.17
2023-01-10T15:39:22.983Z,3.13
2023-01-10T15:42:25.651Z,3.20
2023-01-10T15:45:36.773Z,3.53
2023-01-10T15:48:41.592Z,3.65
2023-01-10T15:51:47.583Z,4.03
2023-01-10T15:54:50.302Z,4.00
2023-01-10T15:57:51.783Z,4.23
2023-01-10T16:00:56.539Z,3.73
2023-01-10T16:04:01.132Z,4.22
2023-01-10T16:07:13.134Z,5.82
2023-01-10T16:13:40.858Z,5.53
2023-01-10T16:16:44.069Z,5.43
2023-01-10T16:19:46.640Z,5.32
2023-01-10T16:22:49.131Z,5.40
2023-01-10T16:25:52.764Z,5.10
2023-01-10T16:28:54.180Z,5.10
2023-01-10T16:31:56.370Z,5.00
2023-01-10T16:35:01.990Z,6.03
2023-01-10T16:38:03.594Z,6.43
2023-01-10T16:41:26.800Z,8.85
2023-01-10T16:44:28.500Z,26.93
2023-01-10T16:47:31.761Z,9.40
2023-01-10T16:50:34.404Z,7.73
2023-01-10T16:53:36.952Z,5.20
2023-01-10T16:56:38.282Z,4.80
2023-01-10T16:59:39.794Z,4.22
2023-01-10T17:02:43.262Z,3.63
2023-01-10T17:05:44.671Z,4.50
2023-01-10T17:08:47.378Z,5.35
2023-01-10T17:11:54.887Z,4.30
2023-01-10T17:14:56.363Z,3.67
2023-01-10T17:17:59.612Z,4.10
2023-01-10T17:21:01.072Z,4.50
2023-01-10T17:24:02.457Z,3.88
2023-01-10T17:27:04.075Z,4.22
2023-01-10T17:30:06.246Z,3.95
2023-01-10T17:33:11.284Z,5.77
2023-01-10T17:36:12.644Z,4.07
2023-01-10T17:39:14.435Z,4.50
2023-01-10T17:42:18.812Z,6.63
2023-01-10T17:45:20.312Z,5.00
2023-01-10T17:48:22.358Z,4.27
2023-01-10T17:51:24.310Z,5.30
2023-01-10T17:54:27.311Z,4.97
2023-01-10T17:57:29.097Z,4.13
2023-01-10T18:00:31.339Z,4.50
2023-01-10T18:03:33.392Z,5.73
2023-01-10T18:06:34.741Z,5.10
2023-01-10T18:09:37.369Z,4.55
2023-01-10T18:12:39.039Z,5.00
2023-01-10T18:15:43.365Z,4.17
2023-01-10T18:18:45.371Z,4.87
2023-01-10T18:21:48.578Z,5.68
2023-01-10T18:24:51.042Z,4.93
2023-01-10T18:27:52.650Z,3.75
2023-01-10T18:30:54.734Z,4.40
2023-01-10T18:33:57.677Z,4.77
2023-01-10T18:36:59.035Z,4.60
2023-01-10T18:40:00.392Z,5.55
2023-01-10T18:43:03.001Z,4.90
2023-01-10T18:46:07.947Z,4.50
2023-01-10T18:49:10.824Z,4.87
2023-01-10T18:52:13.474Z,7.07
2023-01-10T18:55:15.297Z,6.00
2023-01-10T18:58:17.852Z,6.43
2023-01-10T19:01:21.303Z,5.23
2023-01-10T19:04:23.629Z,4.63
2023-01-10T19:07:25.659Z,3.80
2023-01-10T19:10:26.989Z,4.00
2023-01-10T19:16:48.066Z,3.17
2023-01-10T19:19:50.099Z,3.60
2023-01-10T19:22:51.466Z,3.97
2023-01-10T19:25:56.013Z,3.50
2023-01-10T19:28:57.432Z,3.80
2023-01-10T19:32:01.036Z,3.60
2023-01-10T19:35:03.162Z,3.50
2023-01-10T19:38:05.730Z,3.38
2023-01-10T19:41:07.067Z,3.42
2023-01-10T19:44:13.544Z,3.42
2023-01-10T19:47:16.472Z,3.20
2023-01-10T19:50:18.835Z,3.30
2023-01-10T19:53:25.402Z,3.35
2023-01-10T19:56:26.853Z,3.10
2023-01-10T19:59:31.781Z,3.67
2023-01-10T20:02:33.938Z,3.83
2023-01-10T20:05:37.469Z,3.00
2023-01-10T20:08:38.809Z,3.10
2023-01-10T20:11:42.220Z,3.10
2023-01-10T20:14:43.527Z,2.30
2023-01-10T20:17:46.171Z,2.80
2023-01-10T20:20:48.610Z,2.50
2023-01-10T20:23:51.405Z,2.50
2023-01-10T20:26:52.805Z,3.10
2023-01-10T20:29:54.272Z,3.43
2023-01-10T20:32:55.589Z,2.88
2023-01-10T20:36:00.117Z,3.15
2023-01-10T20:39:02.995Z,2.78
2023-01-10T20:42:04.406Z,3.13
2023-01-10T20:45:08.797Z,2.60
2023-01-10T20:48:11.625Z,2.78
2023-01-10T20:51:15.548Z,3.10
2023-01-10T20:54:18.110Z,2.67
2023-01-10T20:57:20.280Z,2.42
2023-01-10T21:00:23.206Z,3.50
2023-01-10T21:03:24.980Z,2.78
2023-01-10T21:06:28.531Z,3.10
2023-01-10T21:09:31.143Z,2.13
2023-01-10T21:12:34.893Z,2.63
2023-01-10T21:15:38.595Z,2.38
2023-01-10T21:18:44.763Z,2.50
2023-01-10T21:21:46.735Z,2.90
2023-01-10T21:24:50.358Z,3.50
2023-01-10T21:27:51.749Z,2.80
2023-01-10T21:30:54.378Z,3.28
2023-01-10T21:33:55.686Z,3.08
2023-01-10T21:36:58.936Z,3.40
2023-01-10T21:40:00.304Z,3.50
2023-01-10T21:43:03.161Z,2.80
2023-01-10T21:46:23.955Z,2.92
2023-01-10T21:49:26.579Z,3.10
2023-01-10T21:52:28.521Z,2.90
2023-01-10T21:55:31.234Z,3.00
2023-01-10T21:58:32.781Z,2.90
2023-01-10T22:04:55.949Z,2.83
2023-01-10T22:07:59.394Z,2.80
2023-01-10T22:11:00.718Z,3.07
2023-01-10T22:14:03.324Z,3.05
2023-01-10T22:17:05.965Z,3.42
2023-01-10T22:20:08.937Z,2.70
2023-01-10T22:23:12.318Z,3.10
2023-01-10T22:26:15.572Z,2.73
2023-01-10T22:29:20.229Z,2.95
2023-01-10T22:32:21.563Z,2.88
2023-01-10T22:35:26.604Z,2.92
2023-01-10T22:38:30.334Z,2.67
2023-01-10T22:41:33.074Z,2.67
2023-01-10T22:44:34.350Z,2.40
2023-01-10T22:47:36.929Z,2.90
2023-01-10T22:50:38.825Z,2.65
2023-01-10T22:53:42.504Z,2.67
2023-01-10T22:56:46.541Z,2.20
2023-01-10T22:59:49.063Z,2.25
2023-01-10T23:02:51.690Z,2.60
2023-01-10T23:05:54.008Z,2.55
2023-01-10T23:08:57.613Z,2.43
2023-01-10T23:11:58.915Z,2.60
2023-01-10T23:15:01.472Z,2.78
2023-01-10T23:21:24.404Z,2.67
2023-01-10T23:24:27.741Z,2.60
2023-01-10T23:27:30.287Z,2.63
2023-01-10T23:30:31.649Z,2.60
2023-01-10T23:33:34.779Z,2.80
2023-01-10T23:36:36.090Z,2.75
2023-01-10T23:39:39.466Z,2.10
2023-01-10T23:42:42.025Z,2.63
2023-01-10T23:45:43.879Z,2.50
2023-01-10T23:48:48.802Z,2.70
2023-01-10T23:51:50.161Z,2.60
2023-01-10T23:54:53.933Z,2.33
2023-01-10T23:57:57.212Z,2.08
